sensor_id;sensor_type;location;lat;lon;timestamp;temperature;humidity
1948;DHT22;974;52.400;9.818;2022-12-10T00:02:09;0.90;99.90
1948;DHT22;974;52.400;9.818;2022-12-10T00:04:35;1.10;99.90
1948;DHT22;974;52.400;9.818;2022-12-10T00:07:00;1.10;99.90
1948;DHT22;974;52.400;9.818;2022-12-10T00:09:26;1.10;99.90
1948;DHT22;974;52.400;9.818;2022-12-10T00:11:52;1.00;99.90
1948;DHT22;974;52.400;9.818;2022-12-10T00:14:17;1.10;99.90
1948;DHT22;974;52.400;9.818;2022-12-10T00:16:43;1.10;99.90
1948;DHT22;974;52.400;9.818;2022-12-10T00:19:09;1.10;99.90
1948;DHT22;974;52.400;9.818;2022-12-10T00:21:35;1.10;99.90
1948;DHT22;974;52.400;9.818;2022-12-10T00:24:02;1.10;99.90
1948;DHT22;974;52.400;9.818;2022-12-10T00:26:34;1.10;99.90
1948;DHT22;974;52.400;9.818;2022-12-10T00:29:02;1.10;99.90
1948;DHT22;974;52.400;9.818;2022-12-10T00:31:30;1.20;99.90
1948;DHT22;974;52.400;9.818;2022-12-10T00:33:57;1.10;99.90
1948;DHT22;974;52.400;9.818;2022-12-10T00:36:32;1.10;99.90
1948;DHT22;974;52.400;9.818;2022-12-10T00:38:58;1.10;99.90
1948;DHT22;974;52.400;9.818;2022-12-10T00:41:24;1.10;99.90
1948;DHT22;974;52.400;9.818;2022-12-10T00:43:50;1.10;99.90
1948;DHT22;974;52.400;9.818;2022-12-10T00:46:16;1.40;99.90
1948;DHT22;974;52.400;9.818;2022-12-10T00:48:43;1.20;99.90
1948;DHT22;974;52.400;9.818;2022-12-10T00:51:15;1.10;99.90
1948;DHT22;974;52.400;9.818;2022-12-10T00:53:42;1.20;99.90
1948;DHT22;974;52.400;9.818;2022-12-10T00:56:10;1.20;99.90
1948;DHT22;974;52.400;9.818;2022-12-10T00:58:36;1.10;99.90
1948;DHT22;974;52.400;9.818;2022-12-10T01:03:43;1.20;99.90
1948;DHT22;974;52.400;9.818;2022-12-10T01:06:18;1.10;99.90
1948;DHT22;974;52.400;9.818;2022-12-10T01:08:45;1.10;99.90
1948;DHT22;974;52.400;9.818;2022-12-10T01:11:12;1.10;99.90
1948;DHT22;974;52.400;9.818;2022-12-10T01:13:39;1.10;99.90
1948;DHT22;974;52.400;9.818;2022-12-10T01:16:07;1.10;99.90
1948;DHT22;974;52.400;9.818;2022-12-10T01:18:33;1.00;99.90
1948;DHT22;974;52.400;9.818;2022-12-10T01:21:08;1.00;99.90
1948;DHT22;974;52.400;9.818;2022-12-10T01:23:35;1.00;99.90
1948;DHT22;974;52.400;9.818;2022-12-10T01:26:06;1.10;99.90
1948;DHT22;974;52.400;9.818;2022-12-10T01:28:34;1.10;99.90
1948;DHT22;974;52.400;9.818;2022-12-10T01:31:05;1.10;99.90
1948;DHT22;974;52.400;9.818;2022-12-10T01:33:31;1.10;99.90
1948;DHT22;974;52.400;9.818;2022-12-10T01:36:04;1.10;99.90
1948;DHT22;974;52.400;9.818;2022-12-10T01:38:30;1.00;99.90
1948;DHT22;974;52.400;9.818;2022-12-10T01:40:56;1.00;99.90
1948;DHT22;974;52.400;9.818;2022-12-10T01:43:21;0.90;99.90
1948;DHT22;974;52.400;9.818;2022-12-10T01:45:47;0.90;99.90
1948;DHT22;974;52.400;9.818;2022-12-10T01:48:12;1.00;99.90
1948;DHT22;974;52.400;9.818;2022-12-10T01:50:38;1.00;99.90
1948;DHT22;974;52.400;9.818;2022-12-10T01:53:04;1.00;99.90
1948;DHT22;974;52.400;9.818;2022-12-10T01:55:43;0.90;99.90
1948;DHT22;974;52.400;9.818;2022-12-10T01:58:09;1.00;99.90
1948;DHT22;974;52.400;9.818;2022-12-10T02:00:40;1.00;99.90
1948;DHT22;974;52.400;9.818;2022-12-10T02:03:19;1.00;99.90
1948;DHT22;974;52.400;9.818;2022-12-10T02:05:59;1.00;99.90
1948;DHT22;974;52.400;9.818;2022-12-10T02:08:33;1.10;99.90
1948;DHT22;974;52.400;9.818;2022-12-10T02:11:13;1.10;99.90
1948;DHT22;974;52.400;9.818;2022-12-10T02:13:45;1.10;99.90
1948;DHT22;974;52.400;9.818;2022-12-10T02:16:18;1.00;99.90
1948;DHT22;974;52.400;9.818;2022-12-10T02:18:58;1.80;99.90
1948;DHT22;974;52.400;9.818;2022-12-10T02:21:33;0.90;99.90
1948;DHT22;974;52.400;9.818;2022-12-10T02:24:04;1.00;99.90
1948;DHT22;974;52.400;9.818;2022-12-10T02:26:49;0.90;99.90
1948;DHT22;974;52.400;9.818;2022-12-10T02:29:19;0.90;99.90
1948;DHT22;974;52.400;9.818;2022-12-10T02:31:53;0.90;99.90
1948;DHT22;974;52.400;9.818;2022-12-10T02:34:22;0.90;99.90
1948;DHT22;974;52.400;9.818;2022-12-10T02:36:51;0.90;99.90
1948;DHT22;974;52.400;9.818;2022-12-10T02:39:24;1.00;99.90
1948;DHT22;974;52.400;9.818;2022-12-10T02:41:53;1.00;99.90
1948;DHT22;974;52.400;9.818;2022-12-10T02:44:20;0.90;99.90
1948;DHT22;974;52.400;9.818;2022-12-10T02:46:49;1.00;99.90
1948;DHT22;974;52.400;9.818;2022-12-10T02:49:16;1.00;99.90
1948;DHT22;974;52.400;9.818;2022-12-10T02:51:42;0.90;99.90
1948;DHT22;974;52.400;9.818;2022-12-10T02:57:12;0.90;99.90
1948;DHT22;974;52.400;9.818;2022-12-10T02:59:55;1.00;99.90
1948;DHT22;974;52.400;9.818;2022-12-10T03:02:34;1.00;99.90
1948;DHT22;974;52.400;9.818;2022-12-10T03:07:44;1.00;99.90
1948;DHT22;974;52.400;9.818;2022-12-10T03:10:21;1.00;99.90
1948;DHT22;974;52.400;9.818;2022-12-10T03:12:50;1.00;99.90
1948;DHT22;974;52.400;9.818;2022-12-10T03:15:18;1.00;99.90
1948;DHT22;974;52.400;9.818;2022-12-10T03:17:46;0.90;99.90
1948;DHT22;974;52.400;9.818;2022-12-10T03:20:14;0.80;99.90
1948;DHT22;974;52.400;9.818;2022-12-10T03:22:43;0.80;99.90
1948;DHT22;974;52.400;9.818;2022-12-10T03:25:10;0.90;99.90
1948;DHT22;974;52.400;9.818;2022-12-10T03:27:38;0.90;99.90
1948;DHT22;974;52.400;9.818;2022-12-10T03:30:05;0.90;99.90
1948;DHT22;974;52.400;9.818;2022-12-10T03:32:31;1.00;99.90
1948;DHT22;974;52.400;9.818;2022-12-10T03:34:58;1.00;99.90
1948;DHT22;974;52.400;9.818;2022-12-10T03:37:26;1.00;99.90
1948;DHT22;974;52.400;9.818;2022-12-10T03:39:52;0.90;99.90
1948;DHT22;974;52.400;9.818;2022-12-10T03:42:18;0.90;99.90
1948;DHT22;974;52.400;9.818;2022-12-10T03:44:44;0.90;99.90
1948;DHT22;974;52.400;9.818;2022-12-10T03:47:12;0.70;99.90
1948;DHT22;974;52.400;9.818;2022-12-10T03:49:38;0.80;99.90
1948;DHT22;974;52.400;9.818;2022-12-10T03:52:04;0.90;99.90
1948;DHT22;974;52.400;9.818;2022-12-10T03:54:29;0.80;99.90
1948;DHT22;974;52.400;9.818;2022-12-10T03:56:55;0.70;99.90
1948;DHT22;974;52.400;9.818;2022-12-10T03:59:20;0.70;99.90
1948;DHT22;974;52.400;9.818;2022-12-10T04:01:46;0.80;99.90
1948;DHT22;974;52.400;9.818;2022-12-10T04:04:12;0.80;99.90
1948;DHT22;974;52.400;9.818;2022-12-10T04:06:38;0.80;99.90
1948;DHT22;974;52.400;9.818;2022-12-10T04:09:04;0.70;99.90
1948;DHT22;974;52.400;9.818;2022-12-10T04:11:30;0.80;99.90
1948;DHT22;974;52.400;9.818;2022-12-10T04:13:55;0.80;99.90
1948;DHT22;974;52.400;9.818;2022-12-10T04:16:40;0.80;99.90
1948;DHT22;974;52.400;9.818;2022-12-10T04:19:08;0.80;99.90
1948;DHT22;974;52.400;9.818;2022-12-10T04:21:35;0.80;99.90
1948;DHT22;974;52.400;9.818;2022-12-10T04:24:24;0.80;99.90
1948;DHT22;974;52.400;9.818;2022-12-10T04:27:16;0.80;99.90
1948;DHT22;974;52.400;9.818;2022-12-10T04:29:42;0.20;99.90
1948;DHT22;974;52.400;9.818;2022-12-10T04:32:07;0.80;99.90
1948;DHT22;974;52.400;9.818;2022-12-10T04:34:33;0.80;99.90
1948;DHT22;974;52.400;9.818;2022-12-10T04:36:59;0.60;99.90
1948;DHT22;974;52.400;9.818;2022-12-10T04:39:25;0.80;99.90
1948;DHT22;974;52.400;9.818;2022-12-10T04:41:51;0.70;99.90
1948;DHT22;974;52.400;9.818;2022-12-10T04:44:17;1.70;99.90
1948;DHT22;974;52.400;9.818;2022-12-10T04:46:43;0.70;99.90
1948;DHT22;974;52.400;9.818;2022-12-10T04:49:09;0.70;99.90
1948;DHT22;974;52.400;9.818;2022-12-10T04:51:35;0.70;99.90
1948;DHT22;974;52.400;9.818;2022-12-10T04:54:00;0.00;99.90
1948;DHT22;974;52.400;9.818;2022-12-10T04:56:26;0.70;99.90
1948;DHT22;974;52.400;9.818;2022-12-10T04:58:52;0.60;99.90
1948;DHT22;974;52.400;9.818;2022-12-10T05:01:19;0.70;99.90
1948;DHT22;974;52.400;9.818;2022-12-10T05:03:45;0.70;99.90
1948;DHT22;974;52.400;9.818;2022-12-10T05:06:12;0.80;99.90
1948;DHT22;974;52.400;9.818;2022-12-10T05:08:39;0.70;99.90
1948;DHT22;974;52.400;9.818;2022-12-10T05:11:17;0.80;99.90
1948;DHT22;974;52.400;9.818;2022-12-10T05:13:43;0.60;99.90
1948;DHT22;974;52.400;9.818;2022-12-10T05:16:11;0.70;99.90
1948;DHT22;974;52.400;9.818;2022-12-10T05:18:37;0.60;99.90
1948;DHT22;974;52.400;9.818;2022-12-10T05:21:05;0.70;99.90
1948;DHT22;974;52.400;9.818;2022-12-10T05:23:31;0.80;99.90
1948;DHT22;974;52.400;9.818;2022-12-10T05:28:32;0.70;99.90
1948;DHT22;974;52.400;9.818;2022-12-10T05:30:59;0.70;99.90
1948;DHT22;974;52.400;9.818;2022-12-10T05:33:25;0.60;99.90
1948;DHT22;974;52.400;9.818;2022-12-10T05:36:10;0.60;99.90
1948;DHT22;974;52.400;9.818;2022-12-10T05:38:37;0.50;99.90
1948;DHT22;974;52.400;9.818;2022-12-10T05:41:15;0.60;99.90
1948;DHT22;974;52.400;9.818;2022-12-10T05:43:42;0.60;99.90
1948;DHT22;974;52.400;9.818;2022-12-10T05:46:11;0.60;99.90
1948;DHT22;974;52.400;9.818;2022-12-10T05:48:37;0.70;99.90
1948;DHT22;974;52.400;9.818;2022-12-10T05:51:04;0.70;99.90
1948;DHT22;974;52.400;9.818;2022-12-10T05:53:30;0.70;99.90
1948;DHT22;974;52.400;9.818;2022-12-10T05:56:00;0.70;99.90
1948;DHT22;974;52.400;9.818;2022-12-10T05:58:27;0.60;99.90
1948;DHT22;974;52.400;9.818;2022-12-10T06:00:53;0.70;99.90
1948;DHT22;974;52.400;9.818;2022-12-10T06:03:19;0.70;99.90
1948;DHT22;974;52.400;9.818;2022-12-10T06:05:44;0.60;99.90
1948;DHT22;974;52.400;9.818;2022-12-10T06:08:10;0.60;99.90
1948;DHT22;974;52.400;9.818;2022-12-10T06:10:36;0.60;99.90
1948;DHT22;974;52.400;9.818;2022-12-10T06:13:03;0.60;99.90
1948;DHT22;974;52.400;9.818;2022-12-10T06:15:29;0.60;99.90
1948;DHT22;974;52.400;9.818;2022-12-10T06:17:55;0.70;99.90
1948;DHT22;974;52.400;9.818;2022-12-10T06:20:21;0.70;99.90
1948;DHT22;974;52.400;9.818;2022-12-10T06:22:47;0.60;99.90
1948;DHT22;974;52.400;9.818;2022-12-10T06:25:12;0.60;99.90
1948;DHT22;974;52.400;9.818;2022-12-10T06:27:38;0.50;99.90
1948;DHT22;974;52.400;9.818;2022-12-10T06:30:04;0.70;99.90
1948;DHT22;974;52.400;9.818;2022-12-10T06:32:30;0.60;99.90
1948;DHT22;974;52.400;9.818;2022-12-10T06:34:55;0.50;99.90
1948;DHT22;974;52.400;9.818;2022-12-10T06:37:21;0.50;99.90
1948;DHT22;974;52.400;9.818;2022-12-10T06:39:46;1.30;99.90
1948;DHT22;974;52.400;9.818;2022-12-10T06:42:12;0.50;99.90
1948;DHT22;974;52.400;9.818;2022-12-10T06:44:37;0.40;99.90
1948;DHT22;974;52.400;9.818;2022-12-10T06:47:03;0.50;99.90
1948;DHT22;974;52.400;9.818;2022-12-10T06:49:29;0.40;99.90
1948;DHT22;974;52.400;9.818;2022-12-10T06:51:54;0.50;99.90
1948;DHT22;974;52.400;9.818;2022-12-10T06:54:20;0.60;99.90
1948;DHT22;974;52.400;9.818;2022-12-10T06:56:45;0.60;99.90
1948;DHT22;974;52.400;9.818;2022-12-10T06:59:11;0.60;99.90
1948;DHT22;974;52.400;9.818;2022-12-10T07:01:37;0.70;99.90
1948;DHT22;974;52.400;9.818;2022-12-10T07:04:03;0.50;99.90
1948;DHT22;974;52.400;9.818;2022-12-10T07:06:30;0.60;99.90
1948;DHT22;974;52.400;9.818;2022-12-10T07:08:56;0.60;99.90
1948;DHT22;974;52.400;9.818;2022-12-10T07:11:24;0.60;99.90
1948;DHT22;974;52.400;9.818;2022-12-10T07:13:50;0.60;99.90
1948;DHT22;974;52.400;9.818;2022-12-10T07:16:21;0.60;99.90
1948;DHT22;974;52.400;9.818;2022-12-10T07:18:48;0.70;99.90
1948;DHT22;974;52.400;9.818;2022-12-10T07:21:22;0.60;99.90
1948;DHT22;974;52.400;9.818;2022-12-10T07:23:50;0.60;99.90
1948;DHT22;974;52.400;9.818;2022-12-10T07:26:15;0.60;99.90
1948;DHT22;974;52.400;9.818;2022-12-10T07:28:41;0.60;99.90
1948;DHT22;974;52.400;9.818;2022-12-10T07:31:08;0.60;99.90
1948;DHT22;974;52.400;9.818;2022-12-10T07:33:35;0.60;99.90
1948;DHT22;974;52.400;9.818;2022-12-10T07:36:09;0.60;99.90
1948;DHT22;974;52.400;9.818;2022-12-10T07:38:35;0.60;99.90
1948;DHT22;974;52.400;9.818;2022-12-10T07:41:05;0.60;99.90
1948;DHT22;974;52.400;9.818;2022-12-10T07:43:33;0.50;99.90
1948;DHT22;974;52.400;9.818;2022-12-10T07:46:08;0.60;99.90
1948;DHT22;974;52.400;9.818;2022-12-10T07:48:34;0.50;99.90
1948;DHT22;974;52.400;9.818;2022-12-10T07:53:26;0.50;99.90
1948;DHT22;974;52.400;9.818;2022-12-10T07:55:52;0.30;99.90
1948;DHT22;974;52.400;9.818;2022-12-10T07:58:17;0.40;99.90
1948;DHT22;974;52.400;9.818;2022-12-10T08:00:43;0.40;99.90
1948;DHT22;974;52.400;9.818;2022-12-10T08:03:08;0.40;99.90
1948;DHT22;974;52.400;9.818;2022-12-10T08:05:34;0.40;99.90
1948;DHT22;974;52.400;9.818;2022-12-10T08:07:59;0.50;99.90
1948;DHT22;974;52.400;9.818;2022-12-10T08:10:25;0.50;99.90
1948;DHT22;974;52.400;9.818;2022-12-10T08:12:50;0.60;99.90
1948;DHT22;974;52.400;9.818;2022-12-10T08:15:16;0.60;99.90
1948;DHT22;974;52.400;9.818;2022-12-10T08:17:41;0.40;99.90
1948;DHT22;974;52.400;9.818;2022-12-10T08:20:08;0.50;99.90
1948;DHT22;974;52.400;9.818;2022-12-10T08:22:34;0.50;99.90
1948;DHT22;974;52.400;9.818;2022-12-10T08:25:01;0.40;99.90
1948;DHT22;974;52.400;9.818;2022-12-10T08:27:27;0.50;99.90
1948;DHT22;974;52.400;9.818;2022-12-10T08:29:52;0.50;99.90
1948;DHT22;974;52.400;9.818;2022-12-10T08:32:18;0.60;99.90
1948;DHT22;974;52.400;9.818;2022-12-10T08:34:43;0.60;99.90
1948;DHT22;974;52.400;9.818;2022-12-10T08:37:09;0.60;99.90
1948;DHT22;974;52.400;9.818;2022-12-10T08:39:34;0.60;99.90
1948;DHT22;974;52.400;9.818;2022-12-10T08:42:00;0.60;99.90
1948;DHT22;974;52.400;9.818;2022-12-10T08:44:25;0.70;99.90
1948;DHT22;974;52.400;9.818;2022-12-10T08:46:51;0.70;99.90
1948;DHT22;974;52.400;9.818;2022-12-10T08:49:16;0.70;99.90
1948;DHT22;974;52.400;9.818;2022-12-10T08:51:42;0.60;99.90
1948;DHT22;974;52.400;9.818;2022-12-10T08:54:08;0.80;99.90
1948;DHT22;974;52.400;9.818;2022-12-10T08:56:33;0.70;99.90
1948;DHT22;974;52.400;9.818;2022-12-10T08:59:00;0.70;99.90
1948;DHT22;974;52.400;9.818;2022-12-10T09:01:25;0.60;99.90
1948;DHT22;974;52.400;9.818;2022-12-10T09:03:51;1.40;99.90
1948;DHT22;974;52.400;9.818;2022-12-10T09:06:19;0.60;99.90
1948;DHT22;974;52.400;9.818;2022-12-10T09:08:45;1.80;99.90
1948;DHT22;974;52.400;9.818;2022-12-10T09:11:14;0.70;99.90
1948;DHT22;974;52.400;9.818;2022-12-10T09:13:41;0.70;99.90
1948;DHT22;974;52.400;9.818;2022-12-10T09:16:06;0.70;99.90
1948;DHT22;974;52.400;9.818;2022-12-10T09:18:32;0.60;99.90
1948;DHT22;974;52.400;9.818;2022-12-10T09:20:58;0.60;99.90
1948;DHT22;974;52.400;9.818;2022-12-10T09:23:23;0.70;99.90
1948;DHT22;974;52.400;9.818;2022-12-10T09:25:49;0.70;99.90
1948;DHT22;974;52.400;9.818;2022-12-10T09:28:15;0.80;99.90
1948;DHT22;974;52.400;9.818;2022-12-10T09:30:40;0.80;99.90
1948;DHT22;974;52.400;9.818;2022-12-10T09:33:06;0.80;99.90
1948;DHT22;974;52.400;9.818;2022-12-10T09:35:32;0.80;99.90
1948;DHT22;974;52.400;9.818;2022-12-10T09:37:58;0.80;99.90
1948;DHT22;974;52.400;9.818;2022-12-10T09:40:34;0.80;99.90
1948;DHT22;974;52.400;9.818;2022-12-10T09:43:43;0.60;99.90
1948;DHT22;974;52.400;9.818;2022-12-10T09:51:36;0.70;99.90
1948;DHT22;974;52.400;9.818;2022-12-10T09:54:11;0.60;99.90
1948;DHT22;974;52.400;9.818;2022-12-10T09:56:40;0.70;99.90
1948;DHT22;974;52.400;9.818;2022-12-10T09:59:20;0.70;99.90
1948;DHT22;974;52.400;9.818;2022-12-10T10:01:48;0.80;99.90
1948;DHT22;974;52.400;9.818;2022-12-10T10:04:16;0.80;99.90
1948;DHT22;974;52.400;9.818;2022-12-10T10:06:41;0.70;99.90
1948;DHT22;974;52.400;9.818;2022-12-10T10:09:10;0.70;99.90
1948;DHT22;974;52.400;9.818;2022-12-10T10:11:38;0.70;99.90
1948;DHT22;974;52.400;9.818;2022-12-10T10:14:27;0.70;99.90
1948;DHT22;974;52.400;9.818;2022-12-10T10:16:56;0.70;99.90
1948;DHT22;974;52.400;9.818;2022-12-10T10:19:30;0.80;99.90
1948;DHT22;974;52.400;9.818;2022-12-10T10:21:56;0.90;99.90
1948;DHT22;974;52.400;9.818;2022-12-10T10:24:28;0.90;99.90
1948;DHT22;974;52.400;9.818;2022-12-10T10:26:58;0.90;99.90
1948;DHT22;974;52.400;9.818;2022-12-10T10:29:25;0.90;99.90
1948;DHT22;974;52.400;9.818;2022-12-10T10:32:20;0.90;99.90
1948;DHT22;974;52.400;9.818;2022-12-10T10:34:55;0.90;99.90
1948;DHT22;974;52.400;9.818;2022-12-10T10:37:26;1.00;99.90
1948;DHT22;974;52.400;9.818;2022-12-10T10:39:55;1.00;99.90
1948;DHT22;974;52.400;9.818;2022-12-10T10:42:31;1.00;99.90
1948;DHT22;974;52.400;9.818;2022-12-10T10:44:59;0.80;99.90
1948;DHT22;974;52.400;9.818;2022-12-10T10:47:30;0.80;99.90
1948;DHT22;974;52.400;9.818;2022-12-10T10:49:56;0.80;99.90
1948;DHT22;974;52.400;9.818;2022-12-10T10:52:22;0.90;99.90
1948;DHT22;974;52.400;9.818;2022-12-10T10:54:48;0.80;99.90
1948;DHT22;974;52.400;9.818;2022-12-10T10:57:20;0.70;99.90
1948;DHT22;974;52.400;9.818;2022-12-10T10:59:47;0.90;99.90
1948;DHT22;974;52.400;9.818;2022-12-10T11:02:26;0.80;99.90
1948;DHT22;974;52.400;9.818;2022-12-10T11:04:55;0.80;99.90
1948;DHT22;974;52.400;9.818;2022-12-10T11:07:35;0.80;99.90
1948;DHT22;974;52.400;9.818;2022-12-10T11:10:04;0.80;99.90
1948;DHT22;974;52.400;9.818;2022-12-10T11:12:40;0.80;99.90
1948;DHT22;974;52.400;9.818;2022-12-10T11:18:00;0.90;99.90
1948;DHT22;974;52.400;9.818;2022-12-10T11:20:29;0.90;99.90
1948;DHT22;974;52.400;9.818;2022-12-10T11:23:00;1.00;99.90
1948;DHT22;974;52.400;9.818;2022-12-10T11:25:57;2.10;99.90
1948;DHT22;974;52.400;9.818;2022-12-10T11:39:38;1.10;99.90
1948;DHT22;974;52.400;9.818;2022-12-10T11:42:35;1.00;99.90
1948;DHT22;974;52.400;9.818;2022-12-10T11:45:12;1.00;99.90
1948;DHT22;974;52.400;9.818;2022-12-10T11:47:57;1.00;99.90
1948;DHT22;974;52.400;9.818;2022-12-10T11:50:50;1.00;99.90
1948;DHT22;974;52.400;9.818;2022-12-10T11:56:10;1.10;99.90
1948;DHT22;974;52.400;9.818;2022-12-10T12:01:44;1.00;99.90
1948;DHT22;974;52.400;9.818;2022-12-10T12:07:33;1.10;99.90
1948;DHT22;974;52.400;9.818;2022-12-10T12:16:03;1.00;99.90
1948;DHT22;974;52.400;9.818;2022-12-10T12:18:50;1.10;99.90
1948;DHT22;974;52.400;9.818;2022-12-10T12:21:17;1.10;99.90
1948;DHT22;974;52.400;9.818;2022-12-10T12:26:39;1.00;99.90
1948;DHT22;974;52.400;9.818;2022-12-10T12:29:19;1.00;99.90
1948;DHT22;974;52.400;9.818;2022-12-10T12:32:03;1.00;99.90
1948;DHT22;974;52.400;9.818;2022-12-10T12:34:54;1.10;99.90
1948;DHT22;974;52.400;9.818;2022-12-10T12:37:28;1.10;99.90
1948;DHT22;974;52.400;9.818;2022-12-10T12:40:15;0.40;99.90
1948;DHT22;974;52.400;9.818;2022-12-10T12:42:49;1.20;99.90
1948;DHT22;974;52.400;9.818;2022-12-10T12:45:52;1.00;99.90
1948;DHT22;974;52.400;9.818;2022-12-10T12:48:32;1.10;99.90
1948;DHT22;974;52.400;9.818;2022-12-10T12:53:31;1.00;99.90
1948;DHT22;974;52.400;9.818;2022-12-10T13:04:18;1.00;99.90
1948;DHT22;974;52.400;9.818;2022-12-10T13:09:49;1.00;99.90
1948;DHT22;974;52.400;9.818;2022-12-10T13:12:17;1.10;99.90
1948;DHT22;974;52.400;9.818;2022-12-10T13:19:41;1.10;99.90
1948;DHT22;974;52.400;9.818;2022-12-10T13:22:12;1.10;99.90
1948;DHT22;974;52.400;9.818;2022-12-10T13:29:57;1.00;99.90
1948;DHT22;974;52.400;9.818;2022-12-10T13:32:42;1.10;99.90
1948;DHT22;974;52.400;9.818;2022-12-10T13:37:34;1.00;99.90
1948;DHT22;974;52.400;9.818;2022-12-10T13:40:14;1.00;99.90
1948;DHT22;974;52.400;9.818;2022-12-10T13:42:44;1.10;99.90
1948;DHT22;974;52.400;9.818;2022-12-10T13:45:32;1.10;99.90
1948;DHT22;974;52.400;9.818;2022-12-10T13:48:25;1.10;99.90
1948;DHT22;974;52.400;9.818;2022-12-10T13:56:30;1.10;99.90
1948;DHT22;974;52.400;9.818;2022-12-10T14:01:43;0.90;99.90
1948;DHT22;974;52.400;9.818;2022-12-10T14:04:29;0.80;99.90
1948;DHT22;974;52.400;9.818;2022-12-10T14:06:57;0.90;99.90
1948;DHT22;974;52.400;9.818;2022-12-10T14:09:43;1.00;99.90
1948;DHT22;974;52.400;9.818;2022-12-10T14:12:14;1.10;99.90
1948;DHT22;974;52.400;9.818;2022-12-10T14:14:46;1.10;99.90
1948;DHT22;974;52.400;9.818;2022-12-10T14:17:18;1.10;99.90
1948;DHT22;974;52.400;9.818;2022-12-10T14:19:47;1.20;99.90
1948;DHT22;974;52.400;9.818;2022-12-10T14:22:18;1.10;99.90
1948;DHT22;974;52.400;9.818;2022-12-10T14:24:48;1.10;99.90
1948;DHT22;974;52.400;9.818;2022-12-10T14:27:28;1.10;99.90
1948;DHT22;974;52.400;9.818;2022-12-10T14:30:10;1.00;99.90
1948;DHT22;974;52.400;9.818;2022-12-10T14:32:39;1.00;99.90
1948;DHT22;974;52.400;9.818;2022-12-10T14:35:10;1.00;99.90
1948;DHT22;974;52.400;9.818;2022-12-10T14:37:40;1.00;99.90
1948;DHT22;974;52.400;9.818;2022-12-10T14:40:07;0.90;99.90
1948;DHT22;974;52.400;9.818;2022-12-10T14:42:33;0.90;99.90
1948;DHT22;974;52.400;9.818;2022-12-10T14:45:02;1.00;99.90
1948;DHT22;974;52.400;9.818;2022-12-10T14:47:35;1.00;99.90
1948;DHT22;974;52.400;9.818;2022-12-10T14:50:02;0.90;99.90
1948;DHT22;974;52.400;9.818;2022-12-10T14:52:33;0.90;99.90
1948;DHT22;974;52.400;9.818;2022-12-10T14:55:01;0.90;99.90
1948;DHT22;974;52.400;9.818;2022-12-10T14:57:38;1.00;99.90
1948;DHT22;974;52.400;9.818;2022-12-10T15:00:20;0.90;99.90
1948;DHT22;974;52.400;9.818;2022-12-10T15:02:54;0.90;99.90
1948;DHT22;974;52.400;9.818;2022-12-10T15:05:27;1.00;99.90
1948;DHT22;974;52.400;9.818;2022-12-10T15:08:02;0.90;99.90
1948;DHT22;974;52.400;9.818;2022-12-10T15:10:41;0.80;99.90
1948;DHT22;974;52.400;9.818;2022-12-10T15:13:24;0.80;99.90
1948;DHT22;974;52.400;9.818;2022-12-10T15:15:52;0.80;99.90
1948;DHT22;974;52.400;9.818;2022-12-10T15:18:33;0.80;99.90
1948;DHT22;974;52.400;9.818;2022-12-10T15:23:39;0.80;99.90
1948;DHT22;974;52.400;9.818;2022-12-10T15:26:23;0.90;99.90
1948;DHT22;974;52.400;9.818;2022-12-10T15:28:51;0.80;99.90
1948;DHT22;974;52.400;9.818;2022-12-10T15:33:58;0.80;99.90
1948;DHT22;974;52.400;9.818;2022-12-10T15:41:52;0.80;99.90
1948;DHT22;974;52.400;9.818;2022-12-10T15:49:30;0.70;99.90
1948;DHT22;974;52.400;9.818;2022-12-10T15:51:56;0.70;99.90
1948;DHT22;974;52.400;9.818;2022-12-10T15:57:00;0.60;99.90
1948;DHT22;974;52.400;9.818;2022-12-10T15:59:25;0.60;99.90
1948;DHT22;974;52.400;9.818;2022-12-10T16:01:51;0.70;99.90
1948;DHT22;974;52.400;9.818;2022-12-10T16:04:17;0.80;99.90
1948;DHT22;974;52.400;9.818;2022-12-10T16:06:42;0.70;99.90
1948;DHT22;974;52.400;9.818;2022-12-10T16:09:09;0.80;99.90
1948;DHT22;974;52.400;9.818;2022-12-10T16:11:34;0.70;99.90
1948;DHT22;974;52.400;9.818;2022-12-10T16:14:00;0.90;99.90
1948;DHT22;974;52.400;9.818;2022-12-10T16:16:27;0.70;99.90
1948;DHT22;974;52.400;9.818;2022-12-10T16:18:53;0.70;99.90
1948;DHT22;974;52.400;9.818;2022-12-10T16:21:19;0.60;99.90
1948;DHT22;974;52.400;9.818;2022-12-10T16:23:44;0.70;99.90
1948;DHT22;974;52.400;9.818;2022-12-10T16:26:18;0.60;99.90
1948;DHT22;974;52.400;9.818;2022-12-10T16:28:45;0.60;99.90
1948;DHT22;974;52.400;9.818;2022-12-10T16:31:16;0.60;99.90
1948;DHT22;974;52.400;9.818;2022-12-10T16:33:42;0.70;99.90
1948;DHT22;974;52.400;9.818;2022-12-10T16:36:10;0.60;99.90
1948;DHT22;974;52.400;9.818;2022-12-10T16:38:37;0.70;99.90
1948;DHT22;974;52.400;9.818;2022-12-10T16:41:03;0.70;99.90
1948;DHT22;974;52.400;9.818;2022-12-10T16:43:31;0.70;99.90
1948;DHT22;974;52.400;9.818;2022-12-10T16:45:58;0.70;99.90
1948;DHT22;974;52.400;9.818;2022-12-10T16:48:24;0.60;99.90
1948;DHT22;974;52.400;9.818;2022-12-10T16:50:51;0.60;99.90
1948;DHT22;974;52.400;9.818;2022-12-10T16:53:22;0.60;99.90
1948;DHT22;974;52.400;9.818;2022-12-10T16:55:48;0.60;99.90
1948;DHT22;974;52.400;9.818;2022-12-10T16:58:15;0.70;99.90
1948;DHT22;974;52.400;9.818;2022-12-10T17:00:43;0.70;99.90
1948;DHT22;974;52.400;9.818;2022-12-10T17:03:11;0.70;99.90
1948;DHT22;974;52.400;9.818;2022-12-10T17:05:48;0.70;99.90
1948;DHT22;974;52.400;9.818;2022-12-10T17:08:13;0.70;99.90
1948;DHT22;974;52.400;9.818;2022-12-10T17:10:39;0.70;99.90
1948;DHT22;974;52.400;9.818;2022-12-10T17:13:23;0.60;99.90
1948;DHT22;974;52.400;9.818;2022-12-10T17:15:51;0.60;99.90
1948;DHT22;974;52.400;9.818;2022-12-10T17:18:18;0.60;99.90
1948;DHT22;974;52.400;9.818;2022-12-10T17:20:45;0.50;99.90
1948;DHT22;974;52.400;9.818;2022-12-10T17:23:11;0.50;99.90
1948;DHT22;974;52.400;9.818;2022-12-10T17:25:38;0.40;99.90
1948;DHT22;974;52.400;9.818;2022-12-10T17:28:04;0.50;99.90
1948;DHT22;974;52.400;9.818;2022-12-10T17:30:30;1.40;99.90
1948;DHT22;974;52.400;9.818;2022-12-10T17:32:56;0.50;99.90
1948;DHT22;974;52.400;9.818;2022-12-10T17:35:22;0.50;99.90
1948;DHT22;974;52.400;9.818;2022-12-10T17:37:48;1.20;99.90
1948;DHT22;974;52.400;9.818;2022-12-10T17:40:19;0.50;99.90
1948;DHT22;974;52.400;9.818;2022-12-10T17:42:45;0.50;99.90
1948;DHT22;974;52.400;9.818;2022-12-10T17:45:13;0.50;99.90
1948;DHT22;974;52.400;9.818;2022-12-10T17:47:39;0.60;99.90
1948;DHT22;974;52.400;9.818;2022-12-10T17:50:23;0.60;99.90
1948;DHT22;974;52.400;9.818;2022-12-10T17:52:51;0.60;99.90
1948;DHT22;974;52.400;9.818;2022-12-10T17:55:17;0.50;99.90
1948;DHT22;974;52.400;9.818;2022-12-10T17:57:42;0.60;99.90
1948;DHT22;974;52.400;9.818;2022-12-10T18:00:14;0.60;99.90
1948;DHT22;974;52.400;9.818;2022-12-10T18:02:40;0.50;99.90
1948;DHT22;974;52.400;9.818;2022-12-10T18:05:05;0.50;99.90
1948;DHT22;974;52.400;9.818;2022-12-10T18:07:31;0.60;99.90
1948;DHT22;974;52.400;9.818;2022-12-10T18:09:57;0.60;99.90
1948;DHT22;974;52.400;9.818;2022-12-10T18:12:22;0.50;99.90
1948;DHT22;974;52.400;9.818;2022-12-10T18:14:48;0.50;99.90
1948;DHT22;974;52.400;9.818;2022-12-10T18:17:14;0.60;99.90
1948;DHT22;974;52.400;9.818;2022-12-10T18:19:42;0.70;99.90
1948;DHT22;974;52.400;9.818;2022-12-10T18:22:08;0.80;99.90
1948;DHT22;974;52.400;9.818;2022-12-10T18:24:34;0.70;99.90
1948;DHT22;974;52.400;9.818;2022-12-10T18:26:59;0.70;99.90
1948;DHT22;974;52.400;9.818;2022-12-10T18:29:25;0.70;99.90
1948;DHT22;974;52.400;9.818;2022-12-10T18:31:50;0.80;99.90
1948;DHT22;974;52.400;9.818;2022-12-10T18:34:17;0.70;99.90